createdAt,value
2019-03-30T00:00:19.121Z,7.91
2019-03-30T00:01:19.059Z,7.94
2019-03-30T00:02:19.086Z,7.97
2019-03-30T00:03:19.148Z,8.00
2019-03-30T00:04:19.046Z,8.05
2019-03-30T00:05:19.320Z,7.97
2019-03-30T00:06:20.010Z,7.91
2019-03-30T00:07:19.078Z,7.94
2019-03-30T00:08:18.999Z,7.94
2019-03-30T00:09:19.110Z,7.95
2019-03-30T00:10:18.961Z,7.94
2019-03-30T00:11:19.115Z,7.95
2019-03-30T00:12:19.014Z,7.93
2019-03-30T00:13:18.948Z,7.91
2019-03-30T00:14:18.972Z,7.87
2019-03-30T00:15:19.055Z,7.79
2019-03-30T00:16:19.033Z,7.69
2019-03-30T00:17:18.953Z,7.72
2019-03-30T00:18:18.937Z,7.60
2019-03-30T00:19:18.905Z,7.61
2019-03-30T00:20:19.076Z,7.56
2019-03-30T00:21:18.870Z,7.61
2019-03-30T00:22:18.982Z,7.54
2019-03-30T00:23:18.827Z,7.57
2019-03-30T00:24:18.892Z,7.48
2019-03-30T00:25:18.909Z,7.56
2019-03-30T00:26:18.905Z,7.53
2019-03-30T00:27:18.827Z,7.51
2019-03-30T00:28:18.971Z,7.50
2019-03-30T00:29:18.796Z,7.60
2019-03-30T00:30:19.925Z,7.50
2019-03-30T00:31:18.752Z,7.58
2019-03-30T00:32:18.844Z,7.57
2019-03-30T00:33:18.720Z,7.57
2019-03-30T00:34:18.863Z,7.60
2019-03-30T00:35:18.922Z,7.58
2019-03-30T00:36:18.740Z,7.58
2019-03-30T00:37:18.866Z,7.56
2019-03-30T00:38:18.667Z,7.67
2019-03-30T00:39:18.713Z,7.56
2019-03-30T00:40:18.742Z,7.60
2019-03-30T00:41:18.643Z,7.58
2019-03-30T00:42:18.811Z,7.67
2019-03-30T00:43:18.658Z,7.69
2019-03-30T00:44:19.670Z,7.66
2019-03-30T00:45:18.714Z,7.69
2019-03-30T00:46:18.597Z,7.76
2019-03-30T00:47:18.622Z,7.67
2019-03-30T00:48:18.702Z,7.66
2019-03-30T00:49:18.588Z,7.72
2019-03-30T00:50:18.808Z,7.60
2019-03-30T00:51:18.548Z,7.61
2019-03-30T00:52:18.541Z,7.61
2019-03-30T00:53:18.589Z,7.61
2019-03-30T00:54:18.498Z,7.58
2019-03-30T00:55:18.592Z,7.66
2019-03-30T00:56:18.502Z,7.53
2019-03-30T00:57:18.565Z,7.66
2019-03-30T00:58:18.459Z,7.67
2019-03-30T00:59:18.576Z,7.66
2019-03-30T01:00:18.526Z,7.69
2019-03-30T01:01:18.456Z,7.63
2019-03-30T01:02:18.477Z,7.63
2019-03-30T01:03:18.439Z,7.58
2019-03-30T01:04:18.400Z,7.58
2019-03-30T01:05:18.612Z,7.60
2019-03-30T01:06:18.387Z,7.54
2019-03-30T01:07:18.474Z,7.57
2019-03-30T01:08:18.367Z,7.50
2019-03-30T01:09:18.343Z,7.51
2019-03-30T01:10:18.372Z,7.40
2019-03-30T01:11:18.536Z,7.38
2019-03-30T01:12:18.360Z,7.29
2019-03-30T01:13:19.455Z,7.31
2019-03-30T01:14:18.309Z,7.24
2019-03-30T01:15:18.491Z,7.24
2019-03-30T01:16:18.304Z,7.24
2019-03-30T01:17:18.344Z,7.23
2019-03-30T01:18:18.274Z,7.14
2019-03-30T01:19:18.270Z,7.23
2019-03-30T01:20:18.276Z,7.18
2019-03-30T01:21:18.340Z,7.23
2019-03-30T01:22:18.219Z,7.20
2019-03-30T01:23:18.361Z,7.29
2019-03-30T01:24:18.199Z,7.17
2019-03-30T01:25:18.354Z,7.15
2019-03-30T01:26:18.220Z,7.11
2019-03-30T01:27:19.316Z,7.15
2019-03-30T01:28:18.265Z,7.15
2019-03-30T01:29:18.367Z,7.14
2019-03-30T01:30:23.459Z,7.14
2019-03-30T01:31:19.119Z,7.20
2019-03-30T01:32:18.116Z,7.24
2019-03-30T01:33:18.258Z,7.31
2019-03-30T01:34:18.121Z,7.18
2019-03-30T01:35:18.305Z,7.14
2019-03-30T01:36:18.080Z,7.18
2019-03-30T01:37:18.067Z,7.23
2019-03-30T01:38:18.093Z,7.13
2019-03-30T01:39:18.022Z,7.11
2019-03-30T01:40:18.226Z,7.00
2019-03-30T01:41:18.024Z,6.99
2019-03-30T01:42:18.105Z,6.93
2019-03-30T01:43:18.030Z,6.99
2019-03-30T01:44:18.153Z,6.96
2019-03-30T01:45:18.073Z,6.85
2019-03-30T01:46:18.063Z,6.87
2019-03-30T01:47:18.050Z,6.85
2019-03-30T01:48:17.934Z,6.81
2019-03-30T01:49:17.971Z,6.87
2019-03-30T01:50:18.270Z,6.88
2019-03-30T01:51:17.962Z,6.96
2019-03-30T01:52:18.046Z,6.93
2019-03-30T01:53:17.924Z,6.93
2019-03-30T01:54:17.893Z,7.07
2019-03-30T01:55:18.064Z,6.96
2019-03-30T01:56:17.902Z,6.99
2019-03-30T01:57:17.985Z,6.99
2019-03-30T01:58:17.846Z,6.96
2019-03-30T01:59:17.824Z,6.85
2019-03-30T02:00:17.838Z,6.85
2019-03-30T02:01:18.947Z,6.87
2019-03-30T02:02:17.857Z,6.84
2019-03-30T02:03:17.905Z,6.85
2019-03-30T02:04:17.783Z,6.89
2019-03-30T02:05:17.797Z,6.88
2019-03-30T02:06:17.938Z,6.89
2019-03-30T02:07:17.771Z,6.81
2019-03-30T02:08:17.844Z,6.88
2019-03-30T02:09:17.756Z,6.82
2019-03-30T02:10:17.803Z,6.92
2019-03-30T02:11:17.706Z,6.85
2019-03-30T02:12:17.831Z,6.99
2019-03-30T02:13:17.675Z,6.97
2019-03-30T02:14:17.799Z,6.96
2019-03-30T02:15:17.682Z,6.92
2019-03-30T02:16:17.665Z,6.96
2019-03-30T02:17:20.162Z,6.87
2019-03-30T02:18:17.715Z,6.88
2019-03-30T02:19:17.680Z,6.93
2019-03-30T02:20:30.365Z,7.02
2019-03-30T02:21:18.589Z,7.14
2019-03-30T02:22:17.636Z,7.05
2019-03-30T02:23:17.609Z,7.13
2019-03-30T02:24:17.663Z,7.15
2019-03-30T02:25:17.584Z,7.10
2019-03-30T02:26:17.668Z,7.28
2019-03-30T02:27:17.551Z,7.29
2019-03-30T02:28:17.550Z,7.21
2019-03-30T02:29:17.662Z,7.32
2019-03-30T02:30:17.518Z,7.31
2019-03-30T02:31:17.595Z,7.33
2019-03-30T02:32:17.506Z,7.29
2019-03-30T02:33:17.792Z,7.28
2019-03-30T02:34:17.642Z,7.35
2019-03-30T02:35:17.467Z,7.38
2019-03-30T02:36:17.652Z,7.20
2019-03-30T02:37:17.431Z,7.25
2019-03-30T02:38:17.672Z,7.32
2019-03-30T02:39:17.573Z,7.23
2019-03-30T02:40:17.397Z,7.29
2019-03-30T02:41:17.605Z,7.23
2019-03-30T02:42:17.379Z,7.13
2019-03-30T02:43:17.568Z,7.15
2019-03-30T02:44:17.361Z,7.14
2019-03-30T02:45:17.350Z,7.14
2019-03-30T02:46:17.521Z,7.21
2019-03-30T02:47:17.342Z,7.17
2019-03-30T02:48:17.483Z,7.14
2019-03-30T02:49:17.302Z,7.17
2019-03-30T02:50:17.318Z,7.10
2019-03-30T02:51:17.293Z,7.21
2019-03-30T02:52:17.566Z,7.20
2019-03-30T02:53:17.316Z,7.18
2019-03-30T02:54:17.369Z,7.28
2019-03-30T02:55:17.249Z,7.31
2019-03-30T02:56:17.242Z,7.24
2019-03-30T02:57:18.546Z,7.23
2019-03-30T02:58:17.274Z,7.33
2019-03-30T02:59:17.411Z,7.35
2019-03-30T03:00:17.256Z,7.32
2019-03-30T03:01:17.253Z,7.42
2019-03-30T03:02:17.258Z,7.38
2019-03-30T03:03:17.475Z,7.40
2019-03-30T03:04:17.197Z,7.38
2019-03-30T03:05:17.384Z,7.35
2019-03-30T03:06:17.224Z,7.31
2019-03-30T03:07:17.137Z,7.35
2019-03-30T03:08:17.206Z,7.32
2019-03-30T03:09:17.273Z,7.33
2019-03-30T03:10:17.106Z,7.32
2019-03-30T03:11:17.089Z,7.32
2019-03-30T03:12:17.104Z,7.40
2019-03-30T03:13:17.116Z,7.47
2019-03-30T03:14:17.065Z,7.40
2019-03-30T03:15:17.234Z,7.40
2019-03-30T03:16:17.041Z,7.39
2019-03-30T03:17:17.032Z,7.32
2019-03-30T03:18:17.015Z,7.36
2019-03-30T03:19:17.174Z,7.33
2019-03-30T03:20:17.094Z,7.33
2019-03-30T03:21:16.991Z,7.29
2019-03-30T03:22:17.153Z,7.23
2019-03-30T03:23:16.972Z,7.25
2019-03-30T03:24:18.169Z,7.25
2019-03-30T03:25:16.982Z,7.24
2019-03-30T03:26:16.986Z,7.23
2019-03-30T03:27:16.918Z,7.33
2019-03-30T03:28:17.135Z,7.33
2019-03-30T03:29:16.932Z,7.31
2019-03-30T03:30:16.898Z,7.24
2019-03-30T03:31:16.918Z,7.31
2019-03-30T03:32:16.976Z,7.32
2019-03-30T03:33:16.968Z,7.31
2019-03-30T03:34:17.141Z,7.29
2019-03-30T03:35:16.882Z,7.35
2019-03-30T03:36:16.841Z,7.31
2019-03-30T03:37:16.825Z,7.31
2019-03-30T03:38:17.012Z,7.32
2019-03-30T03:39:16.813Z,7.23
2019-03-30T03:40:16.895Z,7.20
2019-03-30T03:41:16.795Z,7.18
2019-03-30T03:42:16.783Z,7.21
2019-03-30T03:43:16.906Z,7.20
2019-03-30T03:44:16.891Z,7.13
2019-03-30T03:45:16.763Z,7.21
2019-03-30T03:46:16.901Z,7.31
2019-03-30T03:47:16.715Z,7.18
2019-03-30T03:48:16.738Z,7.21
2019-03-30T03:49:16.834Z,7.17
2019-03-30T03:50:16.681Z,7.14
2019-03-30T03:51:26.337Z,7.17
2019-03-30T03:52:17.908Z,7.15
2019-03-30T03:53:16.960Z,7.11
2019-03-30T03:54:16.660Z,7.11
2019-03-30T03:55:16.931Z,7.20
2019-03-30T03:56:16.617Z,7.18
2019-03-30T03:57:45.255Z,7.25
2019-03-30T03:58:16.591Z,7.20
2019-03-30T03:59:16.612Z,7.29
2019-03-30T04:00:16.601Z,7.23
2019-03-30T04:01:18.751Z,7.29
2019-03-30T04:02:16.549Z,7.11
2019-03-30T04:03:18.704Z,7.21
2019-03-30T04:04:16.570Z,7.29
2019-03-30T04:05:16.541Z,7.20
2019-03-30T04:06:16.542Z,7.24
2019-03-30T04:07:16.541Z,7.10
2019-03-30T04:08:16.496Z,7.29
2019-03-30T04:09:16.747Z,7.28
2019-03-30T04:10:16.471Z,7.21
2019-03-30T04:11:16.479Z,7.21
2019-03-30T04:12:16.581Z,7.20
2019-03-30T04:13:16.439Z,7.29
2019-03-30T04:14:17.131Z,7.28
2019-03-30T04:15:16.421Z,7.23
2019-03-30T04:16:16.606Z,7.07
2019-03-30T04:17:16.420Z,7.21
2019-03-30T04:18:16.548Z,7.18
2019-03-30T04:19:16.420Z,7.21
2019-03-30T04:20:16.542Z,7.20
2019-03-30T04:21:16.355Z,7.14
2019-03-30T04:22:16.337Z,7.17
2019-03-30T04:23:16.332Z,7.14
2019-03-30T04:24:16.561Z,7.28
2019-03-30T04:25:16.315Z,7.15
2019-03-30T04:26:16.513Z,7.15
2019-03-30T04:27:16.290Z,7.15
2019-03-30T04:28:16.323Z,7.20
2019-03-30T04:29:16.467Z,7.15
2019-03-30T04:30:16.286Z,7.14
2019-03-30T04:31:16.431Z,7.24
2019-03-30T04:32:16.235Z,7.17
2019-03-30T04:33:16.278Z,7.07
2019-03-30T04:34:16.221Z,7.17
2019-03-30T04:35:16.260Z,7.28
2019-03-30T04:36:16.218Z,7.07
2019-03-30T04:37:16.379Z,7.13
2019-03-30T04:38:16.291Z,7.28
2019-03-30T04:39:16.291Z,7.17
2019-03-30T04:40:16.152Z,7.11
2019-03-30T04:41:16.209Z,7.21
2019-03-30T04:42:16.252Z,7.11
2019-03-30T04:43:16.289Z,7.11
2019-03-30T04:44:16.136Z,7.17
2019-03-30T04:45:16.106Z,7.13
2019-03-30T04:46:16.114Z,6.96
2019-03-30T04:47:16.156Z,6.85
2019-03-30T04:48:16.127Z,6.82
2019-03-30T04:49:16.228Z,6.64
2019-03-30T04:50:16.091Z,6.52
2019-03-30T04:51:16.058Z,6.54
2019-03-30T04:52:16.072Z,6.49
2019-03-30T04:53:16.131Z,6.41
2019-03-30T04:54:16.028Z,6.49
2019-03-30T04:55:16.106Z,6.48
2019-03-30T04:56:16.097Z,6.54
2019-03-30T04:57:16.067Z,6.51
2019-03-30T04:58:16.003Z,6.54
2019-03-30T04:59:17.055Z,6.52
2019-03-30T05:00:16.116Z,6.62
2019-03-30T05:01:16.040Z,6.75
2019-03-30T05:02:15.941Z,6.85
2019-03-30T05:03:15.938Z,6.84
2019-03-30T05:04:16.059Z,6.84
2019-03-30T05:05:15.931Z,6.82
2019-03-30T05:06:15.969Z,6.79
2019-03-30T05:07:16.255Z,6.79
2019-03-30T05:08:16.711Z,6.79
2019-03-30T05:09:15.868Z,6.79
2019-03-30T05:10:15.864Z,6.81
2019-03-30T05:11:15.856Z,6.75
2019-03-30T05:12:15.945Z,6.74
2019-03-30T05:13:15.851Z,6.85
2019-03-30T05:14:15.921Z,6.79
2019-03-30T05:15:15.818Z,6.79
2019-03-30T05:16:15.832Z,6.88
2019-03-30T05:17:15.822Z,6.87
2019-03-30T05:18:18.687Z,6.96
2019-03-30T05:19:16.336Z,6.96
2019-03-30T05:20:16.107Z,6.96
2019-03-30T05:21:15.733Z,6.93
2019-03-30T05:22:16.715Z,7.00
2019-03-30T05:23:15.756Z,7.00
2019-03-30T05:24:15.796Z,7.05
2019-03-30T05:25:15.720Z,7.02
2019-03-30T05:26:15.802Z,6.99
2019-03-30T05:27:15.835Z,6.99
2019-03-30T05:28:15.809Z,6.97
2019-03-30T05:29:15.781Z,6.93
2019-03-30T05:30:15.711Z,6.93
2019-03-30T05:31:15.760Z,6.96
2019-03-30T05:32:15.664Z,6.96
2019-03-30T05:33:15.750Z,7.10
2019-03-30T05:34:15.604Z,7.14
2019-03-30T05:35:15.720Z,7.17
2019-03-30T05:36:15.592Z,7.15
2019-03-30T05:37:15.577Z,7.18
2019-03-30T05:38:15.576Z,7.14
2019-03-30T05:39:15.706Z,7.17
2019-03-30T05:40:15.576Z,7.10
2019-03-30T05:41:15.845Z,7.25
2019-03-30T05:42:15.576Z,7.20
2019-03-30T05:43:15.514Z,7.23
2019-03-30T05:44:15.534Z,7.31
2019-03-30T05:45:16.663Z,7.35
2019-03-30T05:46:15.499Z,7.33
2019-03-30T05:47:15.542Z,7.23
2019-03-30T05:48:15.460Z,7.23
2019-03-30T05:49:15.509Z,7.18
2019-03-30T05:50:15.486Z,7.15
2019-03-30T05:51:15.566Z,7.07
2019-03-30T05:52:25.799Z,6.97
2019-03-30T05:53:16.438Z,7.06
2019-03-30T05:54:15.481Z,7.20
2019-03-30T05:55:15.414Z,7.24
2019-03-30T05:56:15.495Z,7.21
2019-03-30T05:57:15.386Z,7.35
2019-03-30T05:58:15.431Z,7.25
2019-03-30T05:59:15.387Z,7.40
2019-03-30T06:00:15.497Z,7.39
2019-03-30T06:01:15.354Z,7.51
2019-03-30T06:02:17.419Z,7.53
2019-03-30T06:03:15.306Z,7.56
2019-03-30T06:04:15.340Z,7.57
2019-03-30T06:05:15.364Z,7.57
2019-03-30T06:06:15.365Z,7.57
2019-03-30T06:07:15.259Z,7.70
2019-03-30T06:08:15.479Z,7.70
2019-03-30T06:09:15.255Z,7.77
2019-03-30T06:10:15.334Z,7.91
2019-03-30T06:11:15.207Z,7.85
2019-03-30T06:12:15.223Z,7.87
2019-03-30T06:13:15.178Z,7.93
2019-03-30T06:14:15.322Z,8.00
2019-03-30T06:15:15.228Z,7.98
2019-03-30T06:16:15.276Z,7.97
2019-03-30T06:17:15.160Z,8.05
2019-03-30T06:18:15.197Z,8.10
2019-03-30T06:19:15.133Z,8.12
2019-03-30T06:20:15.216Z,8.13
2019-03-30T06:21:15.154Z,8.16
2019-03-30T06:22:15.218Z,8.16
2019-03-30T06:23:15.238Z,8.24
2019-03-30T06:24:15.122Z,8.19
2019-03-30T06:25:15.077Z,8.26
2019-03-30T06:26:15.133Z,8.28
2019-03-30T06:27:15.059Z,8.33
2019-03-30T06:28:15.085Z,8.30
2019-03-30T06:29:15.051Z,8.34
2019-03-30T06:30:15.079Z,8.30
2019-03-30T06:31:15.175Z,8.30
2019-03-30T06:32:15.121Z,8.41
2019-03-30T06:33:15.017Z,8.46
2019-03-30T06:34:15.003Z,8.55
2019-03-30T06:35:15.087Z,8.60
2019-03-30T06:36:14.995Z,8.52
2019-03-30T06:37:15.056Z,8.58
2019-03-30T06:38:15.013Z,8.78
2019-03-30T06:39:14.978Z,8.78
2019-03-30T06:40:14.944Z,8.78
2019-03-30T06:41:15.068Z,8.89
2019-03-30T06:42:14.880Z,8.87
2019-03-30T06:43:15.043Z,8.89
2019-03-30T06:44:14.879Z,8.92
2019-03-30T06:45:14.899Z,9.02
2019-03-30T06:46:14.909Z,9.06
2019-03-30T06:47:14.824Z,9.13
2019-03-30T06:48:14.816Z,9.11
2019-03-30T06:49:14.918Z,9.13
2019-03-30T06:50:14.803Z,9.19
2019-03-30T06:51:14.920Z,9.29
2019-03-30T06:52:14.799Z,9.22
2019-03-30T06:53:14.830Z,9.26
2019-03-30T06:54:15.022Z,9.19
2019-03-30T06:55:15.908Z,9.29
2019-03-30T06:56:14.784Z,9.21
2019-03-30T06:57:15.817Z,9.34
2019-03-30T06:58:14.713Z,9.34
2019-03-30T06:59:14.724Z,9.39
2019-03-30T07:00:14.735Z,9.43
2019-03-30T07:01:14.754Z,9.36
2019-03-30T07:02:14.687Z,9.47
2019-03-30T07:03:14.724Z,9.48
2019-03-30T07:04:14.724Z,9.40
2019-03-30T07:05:14.639Z,9.41
2019-03-30T07:06:14.671Z,9.43
2019-03-30T07:07:15.684Z,9.43
2019-03-30T07:08:14.628Z,9.41
2019-03-30T07:09:14.678Z,9.47
2019-03-30T07:10:14.597Z,9.50
2019-03-30T07:11:21.070Z,9.51
2019-03-30T07:12:15.566Z,9.55
2019-03-30T07:13:14.686Z,9.54
2019-03-30T07:14:14.572Z,9.58
2019-03-30T07:15:14.607Z,9.65
2019-03-30T07:16:14.561Z,9.66
2019-03-30T07:17:14.523Z,9.65
2019-03-30T07:18:14.516Z,9.69
2019-03-30T07:19:14.607Z,9.77
2019-03-30T07:20:14.513Z,9.79
2019-03-30T07:21:14.592Z,9.84
2019-03-30T07:22:14.559Z,9.87
2019-03-30T07:23:14.455Z,9.87
2019-03-30T07:24:14.504Z,9.94
2019-03-30T07:25:14.631Z,9.94
2019-03-30T07:26:14.497Z,9.89
2019-03-30T07:27:14.516Z,9.97
2019-03-30T07:28:14.436Z,10.04
2019-03-30T07:29:14.384Z,9.98
2019-03-30T07:30:14.393Z,10.04
2019-03-30T07:31:14.901Z,10.05
2019-03-30T07:32:14.373Z,10.17
2019-03-30T07:33:14.426Z,10.17
2019-03-30T07:34:14.343Z,10.15
2019-03-30T07:35:14.322Z,10.10
2019-03-30T07:36:14.510Z,10.17
2019-03-30T07:37:14.325Z,10.16
2019-03-30T07:38:14.408Z,10.23
2019-03-30T07:39:14.309Z,10.26
2019-03-30T07:40:14.377Z,10.37
2019-03-30T07:41:14.341Z,10.34
2019-03-30T07:42:14.569Z,10.42
2019-03-30T07:43:15.893Z,10.53
2019-03-30T07:44:14.385Z,10.59
2019-03-30T07:45:14.305Z,10.67
2019-03-30T07:46:14.720Z,10.68
2019-03-30T07:47:14.277Z,10.68
2019-03-30T07:48:14.331Z,10.72
2019-03-30T07:49:14.180Z,10.76
2019-03-30T07:50:14.261Z,10.81
2019-03-30T07:51:14.235Z,10.81
2019-03-30T07:52:14.197Z,10.81
2019-03-30T07:53:25.523Z,10.90
2019-03-30T07:54:15.127Z,10.97
2019-03-30T07:55:14.291Z,11.00
2019-03-30T07:56:14.183Z,10.93
2019-03-30T07:57:17.266Z,10.87
2019-03-30T07:58:14.093Z,10.96
2019-03-30T07:59:20.848Z,10.96
2019-03-30T08:00:14.083Z,11.00
2019-03-30T08:01:14.129Z,11.04
2019-03-30T08:02:14.112Z,11.05
2019-03-30T08:03:15.174Z,11.05
2019-03-30T08:04:14.052Z,11.07
2019-03-30T08:05:14.133Z,11.18
2019-03-30T08:06:14.035Z,11.19
2019-03-30T08:07:14.221Z,11.17
2019-03-30T08:08:13.993Z,11.25
2019-03-30T08:09:13.973Z,11.29
2019-03-30T08:10:13.954Z,11.25
2019-03-30T08:11:15.100Z,11.29
2019-03-30T08:12:13.976Z,11.37
2019-03-30T08:13:14.146Z,11.27
2019-03-30T08:14:13.921Z,11.41
2019-03-30T08:15:13.943Z,11.45
2019-03-30T08:16:13.913Z,11.37
2019-03-30T08:17:14.420Z,11.48
2019-03-30T08:18:13.984Z,11.47
2019-03-30T08:19:15.070Z,11.57
2019-03-30T08:20:13.872Z,11.66
2019-03-30T08:21:13.855Z,11.75
2019-03-30T08:22:14.140Z,11.77
2019-03-30T08:23:13.831Z,11.78
2019-03-30T08:24:14.010Z,11.86
2019-03-30T08:25:15.079Z,11.81
2019-03-30T08:26:13.858Z,11.86
2019-03-30T08:27:13.828Z,11.87
2019-03-30T08:28:15.899Z,11.94
2019-03-30T08:29:14.140Z,11.91
2019-03-30T08:30:13.999Z,12.00
2019-03-30T08:31:13.975Z,11.97
2019-03-30T08:32:13.751Z,12.06
2019-03-30T08:33:13.729Z,11.95
2019-03-30T08:34:13.837Z,12.07
2019-03-30T08:35:13.775Z,12.04
2019-03-30T08:36:14.730Z,12.06
2019-03-30T08:37:13.694Z,12.15
2019-03-30T08:38:13.782Z,12.18
2019-03-30T08:39:13.682Z,12.22
2019-03-30T08:40:15.329Z,12.21
2019-03-30T08:41:13.638Z,12.29
2019-03-30T08:42:13.772Z,12.35
2019-03-30T08:43:13.606Z,12.39
2019-03-30T08:44:13.613Z,12.40
2019-03-30T08:45:13.736Z,12.45
2019-03-30T08:46:13.616Z,12.45
2019-03-30T08:47:13.723Z,12.49
2019-03-30T08:48:13.578Z,12.67
2019-03-30T08:49:13.660Z,12.73
2019-03-30T08:50:13.596Z,12.70
2019-03-30T08:51:13.696Z,12.73
2019-03-30T08:52:13.553Z,12.70
2019-03-30T08:53:13.691Z,12.73
2019-03-30T08:54:13.553Z,12.79
2019-03-30T08:55:13.636Z,12.73
2019-03-30T08:56:13.501Z,12.82
2019-03-30T08:57:13.684Z,12.80
2019-03-30T08:58:13.475Z,12.90
2019-03-30T08:59:13.648Z,12.93
2019-03-30T09:00:13.459Z,13.01
2019-03-30T09:01:13.563Z,13.04
2019-03-30T09:02:13.461Z,13.05
2019-03-30T09:03:14.587Z,13.09
2019-03-30T09:04:13.405Z,13.08
2019-03-30T09:05:13.624Z,13.22
2019-03-30T09:06:13.378Z,13.25
2019-03-30T09:07:13.830Z,13.20
2019-03-30T09:08:13.360Z,13.30
2019-03-30T09:09:13.419Z,13.27
2019-03-30T09:10:13.339Z,13.35
2019-03-30T09:11:13.573Z,13.41
2019-03-30T09:12:13.334Z,13.50
2019-03-30T09:13:14.369Z,13.52
2019-03-30T09:14:13.302Z,13.46
2019-03-30T09:15:13.375Z,13.50
2019-03-30T09:16:13.331Z,13.49
2019-03-30T09:17:13.330Z,13.52
2019-03-30T09:18:13.241Z,13.57
2019-03-30T09:19:13.305Z,13.59
2019-03-30T09:20:13.224Z,13.60
2019-03-30T09:21:13.385Z,13.67
2019-03-30T09:22:13.255Z,13.62
2019-03-30T09:23:13.331Z,13.65
2019-03-30T09:24:13.195Z,13.63
2019-03-30T09:25:13.226Z,13.67
2019-03-30T09:26:16.486Z,13.67
2019-03-30T09:27:13.511Z,13.68
2019-03-30T09:28:13.135Z,13.87
2019-03-30T09:29:14.235Z,13.85
2019-03-30T09:30:13.115Z,13.93
2019-03-30T09:31:13.258Z,14.03
2019-03-30T09:32:14.789Z,13.99
2019-03-30T09:33:13.200Z,13.95
2019-03-30T09:34:13.085Z,14.08
2019-03-30T09:35:13.093Z,14.08
2019-03-30T09:36:13.086Z,13.97
2019-03-30T09:37:13.133Z,14.04
2019-03-30T09:38:14.779Z,14.12
2019-03-30T09:39:13.160Z,14.07
2019-03-30T09:40:13.047Z,14.05
2019-03-30T09:41:13.047Z,14.04
2019-03-30T09:42:13.069Z,14.14
2019-03-30T09:43:12.980Z,14.20
2019-03-30T09:44:12.964Z,14.18
2019-03-30T09:45:13.055Z,14.35
2019-03-30T09:46:12.939Z,14.37
2019-03-30T09:47:13.123Z,14.43
2019-03-30T09:48:12.943Z,14.43
2019-03-30T09:49:12.960Z,14.51
2019-03-30T09:50:12.936Z,14.50
2019-03-30T09:51:13.045Z,14.53
2019-03-30T09:52:12.913Z,14.58
2019-03-30T09:53:12.943Z,14.53
2019-03-30T09:54:23.108Z,14.60
2019-03-30T09:55:13.853Z,14.60
2019-03-30T09:56:14.045Z,14.53
2019-03-30T09:57:12.936Z,14.66
2019-03-30T09:58:13.007Z,14.72
2019-03-30T09:59:12.841Z,14.69
2019-03-30T10:00:12.912Z,14.81
2019-03-30T10:01:13.000Z,14.88
2019-03-30T10:02:12.825Z,14.85
2019-03-30T10:03:12.926Z,14.88
2019-03-30T10:04:12.873Z,14.91
2019-03-30T10:05:12.792Z,14.96
2019-03-30T10:06:12.780Z,14.99
2019-03-30T10:07:12.788Z,14.94
2019-03-30T10:08:12.800Z,14.99
2019-03-30T10:09:12.728Z,14.94
2019-03-30T10:10:12.820Z,14.96
2019-03-30T10:11:12.683Z,14.99
2019-03-30T10:12:12.859Z,14.99
2019-03-30T10:13:12.708Z,15.07
2019-03-30T10:14:14.734Z,15.07
2019-03-30T10:15:12.649Z,15.11
2019-03-30T10:16:13.191Z,15.21
2019-03-30T10:17:12.719Z,15.21
2019-03-30T10:18:12.686Z,15.29
2019-03-30T10:19:12.645Z,15.29
2019-03-30T10:20:12.686Z,15.33
2019-03-30T10:21:12.600Z,15.15
2019-03-30T10:22:13.733Z,15.24
2019-03-30T10:23:12.595Z,15.27
2019-03-30T10:24:12.600Z,15.29
2019-03-30T10:25:12.552Z,15.24
2019-03-30T10:26:12.610Z,15.21
2019-03-30T10:27:12.527Z,15.24
2019-03-30T10:28:12.611Z,15.14
2019-03-30T10:29:12.510Z,15.27
2019-03-30T10:30:12.618Z,15.21
2019-03-30T10:31:12.534Z,15.24
2019-03-30T10:32:13.470Z,15.43
2019-03-30T10:33:12.503Z,15.40
2019-03-30T10:34:12.581Z,15.43
2019-03-30T10:35:12.427Z,15.57
2019-03-30T10:36:12.581Z,15.59
2019-03-30T10:37:12.442Z,15.70
2019-03-30T10:38:12.695Z,15.73
2019-03-30T10:39:12.405Z,15.75
2019-03-30T10:40:12.502Z,15.75
2019-03-30T10:41:12.364Z,15.67
2019-03-30T10:42:12.537Z,15.68
2019-03-30T10:43:12.590Z,15.75
2019-03-30T10:44:12.344Z,15.68
2019-03-30T10:45:12.539Z,15.68
2019-03-30T10:46:12.339Z,15.68
2019-03-30T10:47:12.457Z,15.67
2019-03-30T10:48:12.329Z,15.76
2019-03-30T10:49:12.295Z,15.77
2019-03-30T10:50:12.271Z,15.92
2019-03-30T10:51:12.473Z,15.86
2019-03-30T10:52:12.307Z,15.86
2019-03-30T10:53:12.453Z,15.98
2019-03-30T10:54:12.224Z,15.97
2019-03-30T10:55:12.244Z,16.05
2019-03-30T10:56:12.222Z,16.10
2019-03-30T10:57:12.445Z,16.08
2019-03-30T10:58:12.238Z,16.12
2019-03-30T10:59:12.469Z,16.04
2019-03-30T11:00:12.183Z,16.05
2019-03-30T11:01:12.186Z,15.94
2019-03-30T11:02:12.157Z,15.88
2019-03-30T11:03:12.302Z,15.91
2019-03-30T11:04:12.132Z,15.98
2019-03-30T11:05:13.301Z,15.94
2019-03-30T11:06:12.116Z,16.08
2019-03-30T11:07:12.134Z,16.13
2019-03-30T11:08:12.144Z,16.05
2019-03-30T11:09:12.186Z,16.20
2019-03-30T11:10:12.111Z,16.20
2019-03-30T11:11:12.247Z,16.20
2019-03-30T11:12:12.040Z,16.31
2019-03-30T11:13:12.081Z,16.32
2019-03-30T11:14:12.044Z,16.35
2019-03-30T11:15:13.209Z,16.43
2019-03-30T11:16:12.090Z,16.49
2019-03-30T11:17:12.133Z,16.86
2019-03-30T11:18:12.134Z,17.36
2019-03-30T11:19:11.992Z,17.95
2019-03-30T11:20:11.965Z,18.52
2019-03-30T11:21:12.070Z,19.19
2019-03-30T11:22:11.951Z,19.69
2019-03-30T11:23:12.174Z,20.18
2019-03-30T11:24:11.912Z,20.63
2019-03-30T11:25:11.923Z,21.14
2019-03-30T11:26:12.005Z,21.05
2019-03-30T11:27:12.142Z,21.18
2019-03-30T11:28:11.884Z,20.96
2019-03-30T11:29:12.619Z,21.05
2019-03-30T11:30:11.893Z,20.84
2019-03-30T11:31:11.893Z,20.95
2019-03-30T11:32:12.057Z,20.81
2019-03-30T11:33:12.040Z,20.84
2019-03-30T11:34:11.830Z,20.95
2019-03-30T11:35:11.956Z,21.32
2019-03-30T11:36:11.775Z,21.33
2019-03-30T11:37:11.865Z,21.45
2019-03-30T11:38:11.852Z,21.62
2019-03-30T11:39:12.046Z,21.96
2019-03-30T11:40:11.768Z,22.20
2019-03-30T11:41:11.913Z,22.51
2019-03-30T11:42:11.762Z,22.14
2019-03-30T11:43:11.827Z,22.14
2019-03-30T11:44:11.699Z,22.15
2019-03-30T11:45:11.919Z,21.69
2019-03-30T11:46:11.704Z,21.07
2019-03-30T11:47:11.917Z,20.34
2019-03-30T11:48:11.669Z,19.48
2019-03-30T11:49:11.676Z,18.96
2019-03-30T11:50:11.666Z,18.49
2019-03-30T11:51:11.755Z,18.78
2019-03-30T11:52:11.659Z,18.70
2019-03-30T11:53:12.794Z,18.63
2019-03-30T11:54:11.657Z,18.35
2019-03-30T11:55:21.609Z,18.25
2019-03-30T11:56:12.765Z,18.01
2019-03-30T11:57:11.665Z,17.95
2019-03-30T11:58:11.734Z,18.83
2019-03-30T11:59:11.541Z,19.88
2019-03-30T12:00:11.713Z,20.69
2019-03-30T12:01:11.602Z,21.21
2019-03-30T12:02:12.237Z,21.40
2019-03-30T12:03:11.500Z,21.58
2019-03-30T12:04:11.580Z,21.95
2019-03-30T12:05:11.502Z,21.89
2019-03-30T12:06:18.358Z,21.85
2019-03-30T12:07:11.527Z,21.95
2019-03-30T12:08:11.469Z,21.88
2019-03-30T12:09:11.438Z,21.20
2019-03-30T12:10:11.508Z,20.47
2019-03-30T12:11:11.408Z,20.44
2019-03-30T12:12:11.585Z,21.06
2019-03-30T12:13:11.431Z,21.70
2019-03-30T12:14:11.432Z,22.32
2019-03-30T12:15:11.389Z,22.54
2019-03-30T12:16:11.455Z,22.84
2019-03-30T12:17:11.378Z,22.96
2019-03-30T12:18:11.392Z,22.72
2019-03-30T12:19:11.351Z,22.51
2019-03-30T12:20:11.385Z,22.44
2019-03-30T12:21:11.463Z,22.47
2019-03-30T12:22:11.440Z,21.95
2019-03-30T12:23:11.332Z,21.50
2019-03-30T12:24:11.340Z,21.40
2019-03-30T12:25:11.278Z,21.66
2019-03-30T12:26:11.343Z,21.82
2019-03-30T12:27:11.279Z,21.40
2019-03-30T12:28:11.463Z,21.20
2019-03-30T12:29:11.241Z,21.30
2019-03-30T12:30:11.255Z,21.42
2019-03-30T12:31:11.208Z,20.51
2019-03-30T12:32:11.317Z,19.91
2019-03-30T12:33:11.196Z,19.55
2019-03-30T12:34:13.221Z,19.85
2019-03-30T12:35:11.215Z,20.44
2019-03-30T12:36:11.190Z,21.17
2019-03-30T12:37:11.181Z,21.85
2019-03-30T12:38:11.196Z,22.17
2019-03-30T12:39:11.120Z,22.22
2019-03-30T12:40:13.195Z,21.60
2019-03-30T12:41:11.099Z,21.15
2019-03-30T12:42:11.186Z,20.66
2019-03-30T12:43:11.299Z,20.39
2019-03-30T12:44:11.078Z,21.18
2019-03-30T12:45:12.183Z,21.91
2019-03-30T12:46:11.061Z,22.48
2019-03-30T12:47:12.176Z,23.09
2019-03-30T12:48:11.055Z,23.27
2019-03-30T12:49:11.077Z,23.28
2019-03-30T12:50:11.048Z,22.62
2019-03-30T12:51:12.187Z,22.20
2019-03-30T12:52:11.240Z,21.95
2019-03-30T12:53:11.275Z,21.96
2019-03-30T12:54:10.965Z,21.70
2019-03-30T12:55:12.085Z,21.83
2019-03-30T12:56:11.018Z,22.54
2019-03-30T12:57:15.462Z,22.88
2019-03-30T12:58:10.964Z,23.08
2019-03-30T12:59:17.523Z,23.05
2019-03-30T13:00:11.091Z,22.94
2019-03-30T13:01:15.529Z,22.81
2019-03-30T13:02:13.569Z,22.73
2019-03-30T13:03:10.898Z,22.87
2019-03-30T13:04:10.975Z,22.98
2019-03-30T13:05:10.870Z,22.96
2019-03-30T13:06:10.842Z,22.63
2019-03-30T13:07:11.131Z,21.40